Time;durP1;ratioP1;P1;durP2;ratioP2;P2;SDS_P1;SDS_P2;PMS_P1;PMS_P2;Temp;Humidity;BMP_temperature;BMP_pressure;BME280_temperature;BME280_humidity;BME280_pressure;Samples;Min_cycle;Max_cycle;Signal;HPM_P1;HPM_P2
2021/11/04 00:01:42;;;;;;;642.38;47.17;;;6.00;99.90;;;;;;4998844;28;20045;-91
2021/11/04 00:04:08;;;;;;;670.92;50.35;;;6.00;99.90;;;;;;4998225;28;20041;-93
2021/11/04 00:06:34;;;;;;;655.42;49.25;;;6.00;99.90;;;;;;4982283;28;20519;-93
2021/11/04 00:09:00;;;;;;;567.42;46.58;;;5.90;99.90;;;;;;4997664;28;20044;-91
2021/11/04 00:11:26;;;;;;;279.58;34.50;;;6.00;99.90;;;;;;5014510;28;20083;-93
2021/11/04 00:13:51;;;;;;;328.42;35.00;;;6.00;99.90;;;;;;4981990;28;20351;-92
2021/11/04 00:16:17;;;;;;;275.85;35.05;;;6.00;99.90;;;;;;4982509;28;20184;-92
2021/11/04 00:18:43;;;;;;;413.35;39.38;;;5.90;99.90;;;;;;4982466;28;20072;-92
2021/11/04 00:21:09;;;;;;;559.25;42.10;;;6.00;99.90;;;;;;4981925;28;20045;-91
2021/11/04 00:23:35;;;;;;;294.95;33.58;;;6.00;99.90;;;;;;4982294;28;20538;-91
2021/11/04 00:26:02;;;;;;;256.25;30.88;;;6.00;99.90;;;;;;4997445;28;20563;-90
2021/11/04 00:28:27;;;;;;;262.80;32.60;;;6.00;99.90;;;;;;4982398;28;20072;-90
2021/11/04 00:30:53;;;;;;;254.57;31.67;;;6.00;99.90;;;;;;4997253;28;20493;-90
2021/11/04 00:33:19;;;;;;;425.45;37.33;;;6.10;99.90;;;;;;5014455;28;20060;-92
2021/11/04 00:35:48;;;;;;;288.45;32.35;;;6.10;99.90;;;;;;4982013;28;20033;-89
2021/11/04 00:38:13;;;;;;;255.55;32.00;;;6.10;99.90;;;;;;4998610;28;20101;-89
2021/11/04 00:40:39;;;;;;;313.67;31.02;;;6.00;99.90;;;;;;4998031;28;20168;-89
2021/11/04 00:43:05;;;;;;;295.50;30.55;;;6.10;99.90;;;;;;4997079;28;20152;-89
2021/11/04 00:45:31;;;;;;;407.17;34.78;;;6.00;99.90;;;;;;4981832;28;20048;-89
2021/11/04 00:47:57;;;;;;;351.45;31.80;;;6.00;99.90;;;;;;4997528;28;20060;-89
2021/11/04 00:50:25;;;;;;;348.25;31.52;;;5.90;99.90;;;;;;4997641;28;20358;-89
2021/11/04 00:52:51;;;;;;;213.38;26.00;;;5.90;99.90;;;;;;4997391;28;20508;-88
2021/11/04 00:55:17;;;;;;;118.78;24.92;;;5.80;99.90;;;;;;4997793;28;20104;-89
2021/11/04 00:57:42;;;;;;;143.05;24.73;;;5.90;99.90;;;;;;5014388;28;20049;-90
2021/11/04 01:00:11;;;;;;;89.80;23.45;;;5.80;99.90;;;;;;5013678;28;20132;-90
2021/11/04 01:02:37;;;;;;;143.65;27.00;;;5.90;99.90;;;;;;5013269;28;20048;-90
2021/11/04 01:05:04;;;;;;;64.72;21.25;;;5.80;99.90;;;;;;5013689;28;20467;-90
2021/11/04 01:07:30;;;;;;;236.07;26.92;;;5.80;99.90;;;;;;4997748;28;20416;-90
2021/11/04 01:09:56;;;;;;;170.88;25.35;;;5.80;99.90;;;;;;4997286;28;20128;-90
2021/11/04 01:12:22;;;;;;;165.05;27.20;;;5.70;99.90;;;;;;4997470;28;20132;-90
2021/11/04 01:14:48;;;;;;;109.93;22.77;;;5.80;99.90;;;;;;5013921;28;20048;-90
2021/11/04 01:17:17;;;;;;;211.02;27.50;;;5.80;99.90;;;;;;5013601;28;20041;-89
2021/11/04 01:19:43;;;;;;;201.13;26.08;;;5.80;99.90;;;;;;4997620;28;20115;-89
2021/11/04 01:22:08;;;;;;;429.35;31.35;;;5.80;99.90;;;;;;4997329;28;20358;-90
2021/11/04 01:24:34;;;;;;;468.67;34.42;;;5.80;99.90;;;;;;4997140;28;20470;-90
2021/11/04 01:27:01;;;;;;;527.80;42.90;;;5.70;99.90;;;;;;4997317;28;20049;-91
2021/11/04 01:29:27;;;;;;;259.17;28.05;;;5.80;99.90;;;;;;4981132;28;20135;-90
2021/11/04 01:31:52;;;;;;;413.67;31.98;;;5.70;99.90;;;;;;4997145;28;20209;-89
2021/11/04 01:34:18;;;;;;;538.65;36.95;;;5.70;99.90;;;;;;4981416;28;20051;-90
2021/11/04 01:36:44;;;;;;;368.05;31.50;;;5.70;99.90;;;;;;5013533;28;20056;-89
2021/11/04 01:39:09;;;;;;;372.48;30.80;;;5.70;99.90;;;;;;4980863;28;20045;-89
2021/11/04 01:41:35;;;;;;;555.97;39.45;;;5.70;99.90;;;;;;4981240;28;20378;-88
2021/11/04 01:44:01;;;;;;;739.38;46.08;;;5.70;99.90;;;;;;4996790;28;20470;-89
2021/11/04 01:46:27;;;;;;;536.63;35.53;;;5.70;99.90;;;;;;4997372;28;20235;-89
2021/11/04 01:48:53;;;;;;;294.27;28.40;;;5.60;99.90;;;;;;5013335;28;20140;-88
2021/11/04 01:51:20;;;;;;;695.30;43.72;;;5.70;99.90;;;;;;4996642;28;20037;-89
2021/11/04 01:53:47;;;;;;;751.95;46.72;;;5.60;99.90;;;;;;4981304;28;20041;-90
2021/11/04 01:56:13;;;;;;;338.63;28.02;;;5.60;99.90;;;;;;4996982;28;20077;-90
2021/11/04 01:58:39;;;;;;;614.03;40.85;;;5.60;99.90;;;;;;4997459;28;20076;-90
2021/11/04 02:01:05;;;;;;;381.63;29.10;;;5.70;99.90;;;;;;4996744;28;20045;-90
2021/11/04 02:03:56;;;;;;;218.68;26.60;;;5.60;99.90;;;;;;5013701;28;20068;-91
2021/11/04 02:06:39;;;;;;;418.33;26.80;;;5.60;99.90;;;;;;4997395;28;20057;-89
2021/11/04 02:09:26;;;;;;;504.85;34.95;;;5.60;99.90;;;;;;4996384;28;20393;-90
2021/11/04 02:12:10;;;;;;;362.38;30.85;;;5.60;99.90;;;;;;4997230;28;20405;-90
2021/11/04 02:14:44;;;;;;;192.77;26.45;;;5.60;99.90;;;;;;4997353;28;20465;-90
2021/11/04 02:17:11;;;;;;;299.00;28.52;;;5.70;99.90;;;;;;5016835;28;20042;-90
2021/11/04 02:19:49;;;;;;;399.77;30.80;;;5.60;99.90;;;;;;5000643;28;20052;-90
2021/11/04 02:22:27;;;;;;;346.42;31.40;;;5.60;99.90;;;;;;5016847;28;20391;-90
2021/11/04 02:25:11;;;;;;;327.70;30.25;;;5.70;99.90;;;;;;5000311;28;20065;-89
2021/11/04 02:27:41;;;;;;;588.42;41.15;;;5.70;99.90;;;;;;5000649;28;20056;-90
2021/11/04 02:30:07;;;;;;;329.23;27.15;;;5.70;99.90;;;;;;5000177;28;20037;-89
2021/11/04 02:32:33;;;;;;;258.83;28.63;;;5.60;99.90;;;;;;4984422;28;20049;-89
2021/11/04 02:35:00;;;;;;;248.55;26.38;;;5.60;99.90;;;;;;5000075;28;20045;-89
2021/11/04 02:37:31;;;;;;;320.15;28.67;;;5.60;99.90;;;;;;5016719;28;20557;-89
2021/11/04 02:39:58;;;;;;;334.55;28.10;;;5.60;99.90;;;;;;5016483;28;20540;-90
2021/11/04 02:42:24;;;;;;;506.77;29.80;;;5.50;99.90;;;;;;5000274;28;20045;-90
2021/11/04 02:44:51;;;;;;;763.83;37.28;;;5.50;99.90;;;;;;5000515;28;20377;-90
2021/11/04 02:47:17;;;;;;;534.88;33.60;;;5.50;99.90;;;;;;4983879;28;20049;-91
2021/11/04 02:49:45;;;;;;;441.77;28.73;;;5.50;99.90;;;;;;4983943;28;20041;-91
2021/11/04 02:52:11;;;;;;;876.80;44.63;;;5.50;99.90;;;;;;4999578;28;20053;-89
2021/11/04 02:54:37;;;;;;;939.72;44.35;;;5.50;99.90;;;;;;4999752;28;20041;-89
2021/11/04 02:57:03;;;;;;;776.75;35.15;;;5.50;99.90;;;;;;5015843;28;20072;-89
2021/11/04 02:59:28;;;;;;;870.95;43.05;;;5.50;99.90;;;;;;4984075;28;20045;-89
2021/11/04 03:01:58;;;;;;;647.17;33.33;;;5.40;99.90;;;;;;4999854;28;20052;-89
2021/11/04 03:04:25;;;;;;;320.02;23.13;;;5.40;99.90;;;;;;4999437;28;20052;-89
2021/11/04 03:06:53;;;;;;;857.65;39.10;;;5.40;99.90;;;;;;5016179;28;20038;-89
2021/11/04 03:09:19;;;;;;;395.73;24.27;;;5.40;99.90;;;;;;4999430;28;20104;-88
2021/11/04 03:11:46;;;;;;;739.65;36.05;;;5.30;99.90;;;;;;5015798;28;20044;-88
2021/11/04 03:14:14;;;;;;;525.33;27.08;;;5.30;99.90;;;;;;5015718;28;20045;-89
2021/11/04 03:16:43;;;;;;;239.23;19.02;;;5.30;99.90;;;;;;4999458;28;20071;-89
2021/11/04 03:19:12;;;;;;;328.85;22.15;;;5.30;99.90;;;;;;5015579;28;20059;-90
2021/11/04 03:21:44;;;;;;;769.97;38.40;;;5.30;99.90;;;;;;4999588;28;20048;-90
2021/11/04 03:24:12;;;;;;;428.40;24.85;;;5.30;99.90;;;;;;5015251;28;20149;-90
2021/11/04 03:26:42;;;;;;;686.75;39.33;;;5.30;99.90;;;;;;4999152;28;20058;-89
2021/11/04 03:29:08;;;;;;;369.85;23.23;;;5.30;99.90;;;;;;4998951;28;20049;-89
2021/11/04 03:31:38;;;;;;;327.00;21.75;;;5.30;99.90;;;;;;5015411;28;20072;-89
2021/11/04 03:34:05;;;;;;;455.77;25.33;;;5.30;99.90;;;;;;5015373;28;20103;-89
2021/11/04 03:36:33;;;;;;;508.63;29.90;;;5.20;99.90;;;;;;4999245;28;20049;-90
2021/11/04 03:38:59;;;;;;;351.30;24.75;;;5.20;99.90;;;;;;4999289;28;20477;-89
2021/11/04 03:41:26;;;;;;;414.63;27.80;;;5.20;99.90;;;;;;4998824;28;20045;-89
2021/11/04 03:43:52;;;;;;;405.75;28.17;;;5.20;99.90;;;;;;4999208;28;20135;-89
2021/11/04 03:46:19;;;;;;;648.92;38.38;;;5.20;99.90;;;;;;4998667;28;20099;-89
2021/11/04 03:48:46;;;;;;;660.83;38.05;;;5.20;99.90;;;;;;4983108;28;20072;-89
2021/11/04 03:51:13;;;;;;;529.60;33.85;;;5.20;99.90;;;;;;5014679;28;20094;-90
2021/11/04 03:53:41;;;;;;;514.28;32.78;;;5.20;99.90;;;;;;5015272;28;20041;-90
2021/11/04 03:56:07;;;;;;;494.65;30.70;;;5.20;99.90;;;;;;4998535;28;20476;-89
2021/11/04 03:58:39;;;;;;;605.33;34.38;;;5.20;99.90;;;;;;5014993;28;20060;-89
2021/11/04 04:01:05;;;;;;;455.40;27.75;;;5.10;99.90;;;;;;4998467;28;20044;-90
2021/11/04 04:03:32;;;;;;;798.03;41.50;;;5.00;99.90;;;;;;4998465;28;20084;-90
2021/11/04 04:06:08;;;;;;;472.00;32.55;;;5.00;99.90;;;;;;4998738;28;20049;-90
2021/11/04 04:08:36;;;;;;;262.33;25.88;;;5.10;99.90;;;;;;5015109;28;20037;-89
2021/11/04 04:11:04;;;;;;;421.55;31.20;;;5.10;99.90;;;;;;5014534;28;20033;-89
2021/11/04 04:13:30;;;;;;;433.13;27.63;;;5.20;99.90;;;;;;5014529;28;20045;-89
2021/11/04 04:15:56;;;;;;;845.58;46.67;;;5.10;99.90;;;;;;4998632;28;20049;-90
2021/11/04 04:18:21;;;;;;;636.35;40.08;;;5.10;99.90;;;;;;4998144;28;20043;-90
2021/11/04 04:20:47;;;;;;;475.15;31.30;;;5.00;99.90;;;;;;5014670;28;20053;-90
2021/11/04 04:23:14;;;;;;;466.48;28.52;;;5.10;99.90;;;;;;4981885;28;20039;-89
2021/11/04 04:25:40;;;;;;;713.22;36.95;;;5.00;99.90;;;;;;4997974;28;20107;-88
2021/11/04 04:28:06;;;;;;;327.00;26.52;;;5.00;99.90;;;;;;4981688;28;20428;-89
2021/11/04 04:30:32;;;;;;;429.00;27.95;;;5.00;99.90;;;;;;4981865;28;20044;-90
2021/11/04 04:32:58;;;;;;;470.42;31.70;;;5.00;99.90;;;;;;4997902;28;20469;-89
2021/11/04 04:35:24;;;;;;;298.48;23.48;;;5.00;99.90;;;;;;4997897;28;20052;-91
2021/11/04 04:37:50;;;;;;;454.52;30.08;;;5.00;99.90;;;;;;4997636;28;20373;-91
2021/11/04 04:40:15;;;;;;;432.52;27.67;;;5.00;99.90;;;;;;5014205;28;20155;-91
2021/11/04 04:42:41;;;;;;;381.20;27.40;;;5.00;99.90;;;;;;5014392;28;20042;-90
2021/11/04 04:45:10;;;;;;;543.03;31.55;;;5.00;99.90;;;;;;4981876;28;20041;-90
2021/11/04 04:47:37;;;;;;;351.37;22.80;;;5.20;99.90;;;;;;4982140;28;20140;-91
2021/11/04 04:50:04;;;;;;;780.88;44.92;;;5.00;99.90;;;;;;4981819;28;20095;-92
2021/11/04 04:52:30;;;;;;;399.10;29.23;;;5.00;99.90;;;;;;5013872;28;20176;-91
2021/11/04 04:54:56;;;;;;;666.50;39.92;;;4.90;99.90;;;;;;5014307;28;20123;-92
2021/11/04 04:57:23;;;;;;;381.73;28.63;;;4.90;99.90;;;;;;4997498;28;20049;-92
2021/11/04 04:59:55;;;;;;;330.23;25.42;;;5.00;99.90;;;;;;5013978;28;20037;-93
2021/11/04 05:02:22;;;;;;;430.83;32.35;;;5.00;99.90;;;;;;4997460;28;20572;-95
2021/11/04 05:04:48;;;;;;;478.83;34.45;;;5.00;99.90;;;;;;4998020;28;20041;-91
2021/11/04 05:07:15;;;;;;;648.50;40.20;;;5.00;99.90;;;;;;4981448;28;20107;-90
2021/11/04 05:09:40;;;;;;;549.17;36.88;;;5.00;99.90;;;;;;5013897;28;20040;-92
2021/11/04 05:12:07;;;;;;;788.92;50.45;;;5.10;99.90;;;;;;4997566;28;20041;-91
2021/11/04 05:14:33;;;;;;;439.05;30.77;;;5.00;99.90;;;;;;4997203;28;20057;-90
2021/11/04 05:16:58;;;;;;;457.88;31.65;;;5.10;99.90;;;;;;4997542;28;20477;-91
2021/11/04 05:19:24;;;;;;;230.18;23.50;;;5.10;99.90;;;;;;4997307;28;20057;-90
2021/11/04 05:21:50;;;;;;;160.15;22.05;;;5.10;99.90;;;;;;4997607;28;20425;-91
2021/11/04 05:24:16;;;;;;;119.43;20.23;;;5.10;99.90;;;;;;4996857;28;20053;-90
2021/11/04 05:26:42;;;;;;;701.85;44.20;;;5.10;99.90;;;;;;4997696;28;20107;-90
2021/11/04 05:29:08;;;;;;;532.17;37.85;;;5.10;99.90;;;;;;4981493;28;20377;-91
2021/11/04 05:31:34;;;;;;;727.05;49.28;;;5.10;99.90;;;;;;5013208;28;20037;-91
2021/11/04 05:34:01;;;;;;;252.25;24.30;;;5.20;99.90;;;;;;5013686;28;20040;-90
2021/11/04 05:36:27;;;;;;;255.10;24.70;;;5.20;99.90;;;;;;5013289;28;20397;-91
2021/11/04 05:38:54;;;;;;;369.92;28.10;;;5.10;99.90;;;;;;5013781;28;20045;-90
2021/11/04 05:41:20;;;;;;;275.02;23.67;;;5.20;99.90;;;;;;4980876;28;20043;-91
2021/11/04 05:43:46;;;;;;;504.15;35.45;;;5.20;99.90;;;;;;4997349;28;20149;-91
2021/11/04 05:46:14;;;;;;;505.92;33.95;;;5.20;99.90;;;;;;4997327;28;20084;-92
2021/11/04 05:48:40;;;;;;;542.50;33.30;;;5.10;99.90;;;;;;4998036;28;20044;-93
2021/11/04 05:51:06;;;;;;;464.23;31.45;;;5.10;99.90;;;;;;4984994;28;20038;-90
2021/11/04 05:53:31;;;;;;;339.92;26.15;;;5.10;99.90;;;;;;5000798;28;20072;-91
2021/11/04 05:55:57;;;;;;;257.88;21.52;;;5.10;99.90;;;;;;4984959;28;20389;-91
2021/11/04 05:58:23;;;;;;;322.95;26.40;;;5.10;99.90;;;;;;4984577;28;20045;-91
2021/11/04 06:00:49;;;;;;;362.65;26.85;;;5.10;99.90;;;;;;5001080;28;20037;-90
2021/11/04 06:03:15;;;;;;;472.23;35.60;;;5.10;99.90;;;;;;5000698;28;20080;-90
2021/11/04 06:05:41;;;;;;;466.98;29.70;;;5.10;99.90;;;;;;5016970;28;20037;-90
2021/11/04 06:08:07;;;;;;;296.42;23.65;;;5.10;99.90;;;;;;4984652;28;20469;-89
2021/11/04 06:10:33;;;;;;;638.17;43.05;;;5.10;99.90;;;;;;5000496;28;20042;-90
2021/11/04 06:12:58;;;;;;;624.25;38.15;;;5.10;99.90;;;;;;5000859;28;20088;-90
2021/11/04 06:15:25;;;;;;;390.98;27.70;;;5.00;99.90;;;;;;5000370;28;20073;-90
2021/11/04 06:17:50;;;;;;;500.00;31.23;;;5.00;99.90;;;;;;5000847;28;20048;-89
2021/11/04 06:20:16;;;;;;;374.00;27.05;;;5.10;99.90;;;;;;4984463;28;20045;-90
2021/11/04 06:22:42;;;;;;;467.13;33.47;;;5.10;99.90;;;;;;5016930;28;20045;-90
2021/11/04 06:25:09;;;;;;;800.50;48.80;;;5.10;99.90;;;;;;4996991;28;20046;-92
2021/11/04 06:27:36;;;;;;;404.45;28.88;;;5.00;99.90;;;;;;5013527;28;20600;-91
2021/11/04 06:30:04;;;;;;;526.65;35.67;;;5.00;99.90;;;;;;4997344;28;20037;-90
2021/11/04 06:32:30;;;;;;;507.80;32.47;;;4.90;99.90;;;;;;4996864;28;20064;-90
2021/11/04 06:34:56;;;;;;;324.58;25.95;;;5.00;99.90;;;;;;5013663;28;20041;-91
2021/11/04 06:37:22;;;;;;;353.55;26.38;;;5.00;99.90;;;;;;4980486;28;20048;-91
2021/11/04 06:39:48;;;;;;;313.85;23.65;;;5.00;99.90;;;;;;4981195;28;20050;-92
2021/11/04 06:42:14;;;;;;;467.55;31.42;;;5.00;99.90;;;;;;4997079;28;20044;-90
2021/11/04 06:44:39;;;;;;;366.33;25.88;;;5.00;99.90;;;;;;4980367;28;20127;-90
2021/11/04 06:47:10;;;;;;;360.42;28.75;;;5.00;99.90;;;;;;4997090;28;20048;-90
2021/11/04 06:49:41;;;;;;;344.17;29.70;;;5.00;99.90;;;;;;4996550;28;20038;-90
2021/11/04 06:52:13;;;;;;;245.13;25.20;;;4.90;99.90;;;;;;4997120;28;20042;-90
2021/11/04 06:54:40;;;;;;;848.05;53.58;;;5.00;99.90;;;;;;4996475;28;20084;-89
2021/11/04 06:57:14;;;;;;;195.82;23.17;;;5.00;99.90;;;;;;4996918;28;20100;-90
2021/11/04 06:59:42;;;;;;;603.50;38.75;;;4.90;99.90;;;;;;4996451;28;20137;-91
2021/11/04 07:02:15;;;;;;;546.85;36.53;;;5.00;99.90;;;;;;4996051;28;20049;-90
2021/11/04 07:04:42;;;;;;;704.80;43.38;;;5.00;99.90;;;;;;5012745;28;20046;-91
2021/11/04 07:07:12;;;;;;;407.88;30.80;;;4.80;99.90;;;;;;4996704;28;20136;-91
2021/11/04 07:09:42;;;;;;;424.48;30.92;;;4.90;99.90;;;;;;5012366;28;20440;-91
2021/11/04 07:12:10;;;;;;;294.00;24.75;;;4.90;99.90;;;;;;5012894;28;20050;-90
2021/11/04 07:14:42;;;;;;;481.75;34.00;;;5.00;99.90;;;;;;4996054;28;20050;-91
2021/11/04 07:17:09;;;;;;;410.17;30.73;;;5.00;99.90;;;;;;4996515;28;20076;-91
2021/11/04 07:19:35;;;;;;;337.17;27.65;;;5.00;99.90;;;;;;4995878;28;20084;-90
2021/11/04 07:22:19;;;;;;;764.42;52.92;;;5.10;99.90;;;;;;4996452;28;20489;-91
2021/11/04 07:24:47;;;;;;;172.07;24.33;;;5.00;99.90;;;;;;4995455;28;20626;-91
2021/11/04 07:27:38;;;;;;;200.77;24.98;;;5.10;99.90;;;;;;4996389;28;20100;-91
2021/11/04 07:30:10;;;;;;;692.55;46.28;;;5.20;99.90;;;;;;4956500;28;20068;-90
2021/11/04 07:32:46;;;;;;;614.08;42.05;;;5.20;99.90;;;;;;4995914;28;20085;-91
2021/11/04 07:35:15;;;;;;;588.13;39.55;;;5.30;99.90;;;;;;4996167;28;20045;-91
2021/11/04 07:37:43;;;;;;;638.28;44.97;;;5.30;99.90;;;;;;4995766;28;20132;-91
2021/11/04 07:40:09;;;;;;;651.97;43.50;;;5.30;99.90;;;;;;4996238;28;20088;-92
2021/11/04 07:42:36;;;;;;;724.90;49.22;;;5.30;99.90;;;;;;4995729;28;20056;-92
2021/11/04 07:45:03;;;;;;;634.70;41.50;;;5.20;99.90;;;;;;4995957;28;20474;-91
2021/11/04 07:47:34;;;;;;;652.92;42.67;;;5.20;99.90;;;;;;4995829;28;20081;-92
2021/11/04 07:50:04;;;;;;;606.60;40.40;;;5.30;99.90;;;;;;4996109;28;20034;-92
2021/11/04 07:52:30;;;;;;;603.70;38.65;;;5.30;99.90;;;;;;4979690;28;20045;-90
2021/11/04 07:55:03;;;;;;;656.42;42.17;;;5.30;99.90;;;;;;4995484;28;20041;-92
2021/11/04 07:57:32;;;;;;;456.75;32.80;;;5.30;99.90;;;;;;4995280;28;20127;-92
2021/11/04 08:00:03;;;;;;;693.67;42.08;;;5.40;99.90;;;;;;4980893;28;20730;-90
2021/11/04 08:02:29;;;;;;;673.92;43.42;;;5.50;99.90;;;;;;4995293;28;20046;-91
2021/11/04 08:04:55;;;;;;;747.97;45.88;;;5.60;99.90;;;;;;4995585;28;20049;-91
2021/11/04 08:07:31;;;;;;;858.83;49.17;;;5.60;99.90;;;;;;4995784;28;20038;-91
2021/11/04 08:09:58;;;;;;;505.52;30.10;;;5.70;99.90;;;;;;4980692;28;20080;-90
2021/11/04 08:12:23;;;;;;;924.55;48.67;;;5.80;99.90;;;;;;4995266;28;20053;-91
2021/11/04 08:14:49;;;;;;;938.88;53.88;;;5.80;99.90;;;;;;4995000;28;20189;-90
2021/11/04 08:17:15;;;;;;;752.13;48.65;;;5.90;99.90;;;;;;5011484;28;20034;-90
2021/11/04 08:19:40;;;;;;;855.85;55.35;;;6.00;99.90;;;;;;4994834;28;20504;-90
2021/11/04 08:22:06;;;;;;;908.38;55.72;;;6.00;99.90;;;;;;5011310;28;20197;-89
2021/11/04 08:24:32;;;;;;;817.30;57.05;;;6.00;99.90;;;;;;4995914;28;20121;-88
2021/11/04 08:26:58;;;;;;;843.53;52.35;;;6.10;99.90;;;;;;5014290;28;20479;-87
2021/11/04 08:29:24;;;;;;;965.85;59.65;;;6.20;99.90;;;;;;4997914;28;20060;-87
2021/11/04 08:31:50;;;;;;;875.75;57.42;;;6.30;99.90;;;;;;4997083;28;20037;-87
2021/11/04 08:34:15;;;;;;;555.53;43.13;;;6.30;99.90;;;;;;4998145;28;20049;-88
2021/11/04 08:36:43;;;;;;;733.20;49.75;;;6.40;99.90;;;;;;4981676;28;20144;-89
2021/11/04 08:39:09;;;;;;;875.00;59.17;;;6.50;99.90;;;;;;4982007;28;20068;-90
2021/11/04 08:41:35;;;;;;;603.33;48.33;;;6.60;99.90;;;;;;4997416;28;20517;-89
2021/11/04 08:44:01;;;;;;;597.15;48.60;;;6.60;99.90;;;;;;5014144;28;20045;-90
2021/11/04 08:46:28;;;;;;;379.75;42.85;;;6.70;99.90;;;;;;4997768;28;20193;-89
2021/11/04 08:48:54;;;;;;;214.93;39.90;;;6.80;99.90;;;;;;4980124;28;20045;-88
2021/11/04 08:51:20;;;;;;;174.52;37.22;;;6.70;99.90;;;;;;4995538;28;20525;-88
2021/11/04 08:53:46;;;;;;;399.95;42.63;;;6.80;99.90;;;;;;4995317;28;20045;-88
2021/11/04 08:56:11;;;;;;;160.75;34.63;;;6.80;99.90;;;;;;4996139;28;20037;-87
2021/11/04 08:58:37;;;;;;;144.52;31.98;;;6.80;99.90;;;;;;5011644;28;20075;-88
2021/11/04 09:01:04;;;;;;;279.98;34.88;;;6.90;99.90;;;;;;4995544;28;20103;-87
2021/11/04 09:03:30;;;;;;;133.40;30.58;;;6.90;99.90;;;;;;4995416;28;20087;-87
2021/11/04 09:05:56;;;;;;;103.63;32.13;;;7.00;99.90;;;;;;5011291;28;20069;-87
2021/11/04 09:08:23;;;;;;;211.65;35.10;;;7.00;99.90;;;;;;4979550;28;20048;-88
2021/11/04 09:10:49;;;;;;;124.82;32.97;;;7.00;99.90;;;;;;4994745;28;20584;-87
2021/11/04 09:13:15;;;;;;;95.57;29.80;;;7.00;99.90;;;;;;5011731;28;20043;-88
2021/11/04 09:15:41;;;;;;;89.63;28.20;;;7.00;99.90;;;;;;4995014;28;20127;-88
2021/11/04 09:18:07;;;;;;;77.18;25.48;;;7.00;99.90;;;;;;5012821;28;20666;-88
2021/11/04 09:20:34;;;;;;;121.78;33.28;;;7.00;99.90;;;;;;5013472;28;20132;-87
2021/11/04 09:23:00;;;;;;;79.63;28.13;;;7.00;99.90;;;;;;5013208;28;20045;-88
2021/11/04 09:25:26;;;;;;;87.07;30.88;;;7.10;99.90;;;;;;5012634;28;20436;-88
2021/11/04 09:27:55;;;;;;;81.28;29.85;;;7.20;99.90;;;;;;5013336;28;20041;-85
2021/11/04 09:30:22;;;;;;;71.43;28.27;;;7.20;99.90;;;;;;4981136;28;20037;-87
2021/11/04 09:32:48;;;;;;;60.92;23.90;;;7.30;99.90;;;;;;5014193;28;20041;-88
2021/11/04 09:35:14;;;;;;;52.70;23.38;;;7.40;99.90;;;;;;4981193;28;20084;-88
2021/11/04 09:37:42;;;;;;;47.75;20.88;;;7.50;99.90;;;;;;5013117;28;20505;-88
2021/11/04 09:40:08;;;;;;;47.25;20.38;;;7.70;99.90;;;;;;4981183;28;20050;-88
2021/11/04 09:42:35;;;;;;;42.15;19.77;;;7.70;99.90;;;;;;4997041;28;20033;-88
2021/11/04 09:45:01;;;;;;;35.92;18.30;;;7.80;99.90;;;;;;5013296;28;20072;-88
2021/11/04 09:47:29;;;;;;;32.08;17.50;;;8.00;99.90;;;;;;4997148;28;20045;-88
2021/11/04 09:49:59;;;;;;;33.22;16.60;;;8.00;99.90;;;;;;4996629;28;20041;-88
2021/11/04 09:52:32;;;;;;;33.25;17.98;;;8.10;99.90;;;;;;4997302;28;20038;-89
2021/11/04 09:54:58;;;;;;;31.05;17.33;;;8.20;99.90;;;;;;4994601;28;20235;-90
2021/11/04 09:57:27;;;;;;;24.90;14.63;;;8.10;99.90;;;;;;5013198;28;20465;-90
2021/11/04 09:59:56;;;;;;;30.63;15.63;;;8.20;99.90;;;;;;4996682;28;20092;-91
2021/11/04 10:02:25;;;;;;;24.48;14.52;;;8.30;99.90;;;;;;5013224;28;20046;-91
2021/11/04 10:04:51;;;;;;;25.42;13.82;;;8.30;99.90;;;;;;5012899;28;20346;-90
2021/11/04 10:07:19;;;;;;;31.80;16.08;;;8.30;99.90;;;;;;5013139;28;20057;-90
2021/11/04 10:10:01;;;;;;;25.35;14.23;;;8.40;99.90;;;;;;5012601;28;20037;-88
2021/11/04 10:12:27;;;;;;;21.80;13.82;;;8.50;99.90;;;;;;4996427;28;20625;-89
2021/11/04 10:15:10;;;;;;;25.50;12.68;;;8.60;99.90;;;;;;4996225;28;20041;-90
2021/11/04 10:17:37;;;;;;;24.30;14.07;;;8.60;99.90;;;;;;4999008;28;20073;-89
2021/11/04 10:20:20;;;;;;;28.65;16.63;;;8.60;99.90;;;;;;4996539;28;20481;-91
2021/11/04 10:23:00;;;;;;;22.52;13.77;;;8.70;99.90;;;;;;5012935;28;20063;-88
2021/11/04 10:25:26;;;;;;;26.35;14.25;;;8.70;99.90;;;;;;5012591;28;20061;-93
2021/11/04 10:27:52;;;;;;;26.90;12.63;;;8.80;99.90;;;;;;4996443;28;20049;-91
2021/11/04 10:30:36;;;;;;;21.30;11.82;;;8.80;99.90;;;;;;4997051;28;20123;-89
2021/11/04 10:33:26;;;;;;;24.00;13.95;;;8.90;99.90;;;;;;4996392;28;20041;-90
2021/11/04 10:35:54;;;;;;;18.50;11.70;;;8.90;99.90;;;;;;4996674;28;20050;-90
2021/11/04 10:38:20;;;;;;;21.38;12.55;;;8.90;99.90;;;;;;5016722;28;20045;-90
2021/11/04 10:40:49;;;;;;;30.33;13.30;;;8.90;99.90;;;;;;4983613;28;20548;-90
2021/11/04 10:43:15;;;;;;;22.37;13.13;;;8.90;99.90;;;;;;5016688;28;20060;-91
2021/11/04 10:45:41;;;;;;;19.38;12.73;;;8.90;99.90;;;;;;4998604;28;20770;-90
2021/11/04 10:48:23;;;;;;;19.83;11.73;;;8.90;99.90;;;;;;4983125;28;20033;-90
2021/11/04 10:50:50;;;;;;;17.67;11.82;;;8.90;99.90;;;;;;4999435;28;20045;-91
2021/11/04 10:53:21;;;;;;;23.75;13.50;;;8.90;99.90;;;;;;5000120;28;20049;-91
2021/11/04 10:56:07;;;;;;;19.20;13.02;;;8.90;99.90;;;;;;4999683;28;20048;-91
2021/11/04 10:58:34;;;;;;;20.65;12.73;;;8.90;99.90;;;;;;4998727;28;20041;-91
2021/11/04 11:01:00;;;;;;;19.83;12.90;;;8.90;99.90;;;;;;4999654;28;20055;-90
2021/11/04 11:03:27;;;;;;;24.65;14.25;;;8.90;99.90;;;;;;5015720;28;20045;-90
2021/11/04 11:05:56;;;;;;;20.67;13.13;;;8.90;99.90;;;;;;4983354;28;20053;-92
2021/11/04 11:08:26;;;;;;;25.02;14.20;;;9.00;99.90;;;;;;4983960;28;20041;-90
2021/11/04 11:10:53;;;;;;;23.73;11.82;;;9.10;99.90;;;;;;4982976;28;20080;-91
2021/11/04 11:13:19;;;;;;;15.57;10.93;;;9.20;99.90;;;;;;4983656;28;20045;-90
2021/11/04 11:15:59;;;;;;;16.65;9.93;;;9.20;99.90;;;;;;4983138;28;20098;-91
2021/11/04 11:18:27;;;;;;;14.32;9.65;;;9.20;99.90;;;;;;4999750;28;20046;-91
2021/11/04 11:20:53;;;;;;;15.18;9.50;;;9.10;99.90;;;;;;4983207;28;20041;-90
2021/11/04 11:23:25;;;;;;;13.30;8.65;;;9.20;99.90;;;;;;4999197;28;20053;-90
2021/11/04 11:25:56;;;;;;;10.93;8.82;;;9.20;99.90;;;;;;4982615;28;20060;-90
2021/11/04 11:28:28;;;;;;;10.75;8.40;;;9.20;99.90;;;;;;5015744;28;20037;-90
2021/11/04 11:31:09;;;;;;;11.15;8.30;;;9.10;99.90;;;;;;5013588;28;20033;-91
2021/11/04 11:34:02;;;;;;;12.40;8.35;;;9.20;99.90;;;;;;4999042;28;20041;-91
2021/11/04 11:36:28;;;;;;;11.65;8.35;;;9.20;99.90;;;;;;5028915;28;20053;-91
2021/11/04 11:39:03;;;;;;;15.48;8.88;;;9.10;99.90;;;;;;4982396;28;20049;-90
2021/11/04 11:41:33;;;;;;;9.90;6.95;;;9.20;99.90;;;;;;4999233;28;20477;-91
2021/11/04 11:44:06;;;;;;;10.80;7.28;;;9.20;99.90;;;;;;4982511;28;20504;-90
2021/11/04 11:46:52;;;;;;;10.65;7.45;;;9.20;99.90;;;;;;4998917;28;20073;-90
2021/11/04 11:49:18;;;;;;;10.07;6.63;;;9.30;99.90;;;;;;4998817;28;20091;-90
2021/11/04 11:51:53;;;;;;;9.15;5.97;;;9.30;99.90;;;;;;5014703;28;20099;-90
2021/11/04 11:54:20;;;;;;;9.50;5.82;;;9.30;99.90;;;;;;4998945;28;20053;-90
2021/11/04 11:57:09;;;;;;;6.38;4.90;;;9.40;99.90;;;;;;4998970;28;20132;-90
2021/11/04 12:00:01;;;;;;;10.32;5.00;;;9.30;99.90;;;;;;4998458;28;20547;-89
2021/11/04 12:02:52;;;;;;;6.25;4.47;;;9.30;99.90;;;;;;4995494;28;20088;-90
2021/11/04 12:05:35;;;;;;;8.88;5.22;;;9.30;99.90;;;;;;4998661;28;20111;-89
2021/11/04 12:08:13;;;;;;;9.70;5.50;;;9.40;99.90;;;;;;5013159;28;20052;-89
2021/11/04 12:10:40;;;;;;;8.10;5.13;;;9.40;99.90;;;;;;4998342;28;20106;-90
2021/11/04 12:13:06;;;;;;;4.75;3.85;;;9.40;99.90;;;;;;4997862;28;20358;-90
2021/11/04 12:16:27;;;;;;;4.38;3.97;;;9.40;99.90;;;;;;4982185;28;20040;-89
2021/11/04 12:18:59;;;;;;;5.20;4.22;;;9.40;99.90;;;;;;4973715;28;20049;-90
2021/11/04 12:21:35;;;;;;;6.95;3.95;;;9.40;99.90;;;;;;4991293;28;20085;-90
2021/11/04 12:24:06;;;;;;;3.97;3.53;;;9.50;99.90;;;;;;5013842;28;20052;-89
2021/11/04 12:26:34;;;;;;;4.85;3.70;;;9.50;99.90;;;;;;4997885;28;20119;-89
2021/11/04 12:29:05;;;;;;;6.03;3.72;;;9.60;99.90;;;;;;5013893;28;20053;-90
2021/11/04 12:31:32;;;;;;;5.63;3.08;;;9.50;99.90;;;;;;4981540;28;20071;-89
2021/11/04 12:34:02;;;;;;;3.75;3.35;;;9.60;99.90;;;;;;4997288;28;20081;-90
2021/11/04 12:36:32;;;;;;;3.50;3.10;;;9.70;99.90;;;;;;4998505;28;20088;-89
2021/11/04 12:38:59;;;;;;;4.57;3.30;;;9.70;99.90;;;;;;5013568;28;20376;-89